sensor_id;sensor_type;location;lat;lon;timestamp;P1;durP1;ratioP1;P2;durP2;ratioP2
84616;SDS011;74846;51.126;16.944;2024-03-02T00:00:27;73.10;;;36.40;;
84616;SDS011;74846;51.126;16.944;2024-03-02T00:03:14;81.90;;;37.30;;
84616;SDS011;74846;51.126;16.944;2024-03-02T00:05:40;87.80;;;43.60;;
84616;SDS011;74846;51.126;16.944;2024-03-02T00:08:07;79.90;;;43.60;;
84616;SDS011;74846;51.126;16.944;2024-03-02T00:10:38;89.40;;;44.40;;
84616;SDS011;74846;51.126;16.944;2024-03-02T00:13:08;89.10;;;43.20;;
84616;SDS011;74846;51.126;16.944;2024-03-02T00:18:39;83.60;;;39.40;;
84616;SDS011;74846;51.126;16.944;2024-03-02T00:21:06;83.30;;;38.30;;
84616;SDS011;74846;51.126;16.944;2024-03-02T00:23:36;80.30;;;38.70;;
84616;SDS011;74846;51.126;16.944;2024-03-02T00:26:03;74.60;;;36.80;;
84616;SDS011;74846;51.126;16.944;2024-03-02T00:28:31;72.30;;;39.00;;
84616;SDS011;74846;51.126;16.944;2024-03-02T00:31:03;79.20;;;40.30;;
84616;SDS011;74846;51.126;16.944;2024-03-02T00:33:34;82.20;;;40.20;;
84616;SDS011;74846;51.126;16.944;2024-03-02T00:36:02;84.10;;;42.80;;
84616;SDS011;74846;51.126;16.944;2024-03-02T00:38:30;82.20;;;40.70;;
84616;SDS011;74846;51.126;16.944;2024-03-02T00:41:03;80.80;;;38.40;;
84616;SDS011;74846;51.126;16.944;2024-03-02T00:43:47;84.80;;;41.20;;
84616;SDS011;74846;51.126;16.944;2024-03-02T00:46:30;78.40;;;39.00;;
84616;SDS011;74846;51.126;16.944;2024-03-02T00:49:11;80.80;;;39.30;;
84616;SDS011;74846;51.126;16.944;2024-03-02T00:51:38;81.20;;;39.70;;
84616;SDS011;74846;51.126;16.944;2024-03-02T00:54:07;85.70;;;41.90;;
84616;SDS011;74846;51.126;16.944;2024-03-02T00:56:35;84.30;;;38.90;;
84616;SDS011;74846;51.126;16.944;2024-03-02T00:59:02;83.40;;;41.50;;
84616;SDS011;74846;51.126;16.944;2024-03-02T01:01:29;86.40;;;42.60;;
84616;SDS011;74846;51.126;16.944;2024-03-02T01:03:56;82.90;;;41.20;;
84616;SDS011;74846;51.126;16.944;2024-03-02T01:06:22;80.80;;;40.80;;
84616;SDS011;74846;51.126;16.944;2024-03-02T01:08:49;81.50;;;40.10;;
84616;SDS011;74846;51.126;16.944;2024-03-02T01:11:17;79.60;;;39.00;;
84616;SDS011;74846;51.126;16.944;2024-03-02T01:13:45;88.20;;;42.40;;
84616;SDS011;74846;51.126;16.944;2024-03-02T01:16:12;83.50;;;42.60;;
84616;SDS011;74846;51.126;16.944;2024-03-02T01:18:39;88.70;;;43.20;;
84616;SDS011;74846;51.126;16.944;2024-03-02T01:21:06;86.20;;;42.00;;
84616;SDS011;74846;51.126;16.944;2024-03-02T01:23:33;89.70;;;42.30;;
84616;SDS011;74846;51.126;16.944;2024-03-02T01:26:00;88.90;;;40.00;;
84616;SDS011;74846;51.126;16.944;2024-03-02T01:28:26;84.70;;;41.50;;
84616;SDS011;74846;51.126;16.944;2024-03-02T01:30:53;83.60;;;41.50;;
84616;SDS011;74846;51.126;16.944;2024-03-02T01:33:20;80.30;;;41.10;;
84616;SDS011;74846;51.126;16.944;2024-03-02T01:35:47;79.00;;;38.50;;
84616;SDS011;74846;51.126;16.944;2024-03-02T01:38:14;79.80;;;39.60;;
84616;SDS011;74846;51.126;16.944;2024-03-02T01:40:41;80.30;;;40.10;;
84616;SDS011;74846;51.126;16.944;2024-03-02T01:43:08;82.60;;;41.70;;
84616;SDS011;74846;51.126;16.944;2024-03-02T01:45:35;91.40;;;43.40;;
84616;SDS011;74846;51.126;16.944;2024-03-02T01:48:06;79.90;;;38.80;;
84616;SDS011;74846;51.126;16.944;2024-03-02T01:50:34;80.50;;;39.90;;
84616;SDS011;74846;51.126;16.944;2024-03-02T01:53:01;79.60;;;38.90;;
84616;SDS011;74846;51.126;16.944;2024-03-02T01:55:31;79.30;;;38.10;;
84616;SDS011;74846;51.126;16.944;2024-03-02T01:57:58;78.20;;;38.00;;
84616;SDS011;74846;51.126;16.944;2024-03-02T02:00:25;83.40;;;39.20;;
84616;SDS011;74846;51.126;16.944;2024-03-02T02:02:52;78.20;;;38.60;;
84616;SDS011;74846;51.126;16.944;2024-03-02T02:05:20;78.40;;;36.50;;
84616;SDS011;74846;51.126;16.944;2024-03-02T02:07:47;90.10;;;42.70;;
84616;SDS011;74846;51.126;16.944;2024-03-02T02:10:14;80.90;;;39.80;;
84616;SDS011;74846;51.126;16.944;2024-03-02T02:12:40;77.40;;;37.80;;
84616;SDS011;74846;51.126;16.944;2024-03-02T02:15:26;89.80;;;44.40;;
84616;SDS011;74846;51.126;16.944;2024-03-02T02:17:55;84.10;;;37.80;;
84616;SDS011;74846;51.126;16.944;2024-03-02T02:20:23;75.90;;;38.50;;
84616;SDS011;74846;51.126;16.944;2024-03-02T02:25:23;78.80;;;40.30;;
84616;SDS011;74846;51.126;16.944;2024-03-02T02:27:50;81.10;;;38.00;;
84616;SDS011;74846;51.126;16.944;2024-03-02T02:30:28;75.90;;;35.90;;
84616;SDS011;74846;51.126;16.944;2024-03-02T02:32:56;83.90;;;37.20;;
84616;SDS011;74846;51.126;16.944;2024-03-02T02:35:24;79.30;;;37.50;;
84616;SDS011;74846;51.126;16.944;2024-03-02T02:37:52;79.50;;;39.80;;
84616;SDS011;74846;51.126;16.944;2024-03-02T02:40:20;93.80;;;43.40;;
84616;SDS011;74846;51.126;16.944;2024-03-02T02:42:47;95.90;;;41.20;;
84616;SDS011;74846;51.126;16.944;2024-03-02T02:45:14;83.60;;;40.60;;
84616;SDS011;74846;51.126;16.944;2024-03-02T02:47:42;77.00;;;38.20;;
84616;SDS011;74846;51.126;16.944;2024-03-02T02:50:09;80.50;;;40.40;;
84616;SDS011;74846;51.126;16.944;2024-03-02T02:52:38;76.80;;;36.30;;
84616;SDS011;74846;51.126;16.944;2024-03-02T02:55:07;87.70;;;39.60;;
84616;SDS011;74846;51.126;16.944;2024-03-02T02:57:39;90.60;;;38.80;;
84616;SDS011;74846;51.126;16.944;2024-03-02T03:00:09;81.80;;;38.20;;
84616;SDS011;74846;51.126;16.944;2024-03-02T03:02:41;83.30;;;35.70;;
84616;SDS011;74846;51.126;16.944;2024-03-02T03:05:11;84.90;;;40.50;;
84616;SDS011;74846;51.126;16.944;2024-03-02T03:10:07;78.50;;;36.40;;
84616;SDS011;74846;51.126;16.944;2024-03-02T03:12:34;81.80;;;39.60;;
84616;SDS011;74846;51.126;16.944;2024-03-02T03:15:02;85.40;;;39.70;;
84616;SDS011;74846;51.126;16.944;2024-03-02T03:17:30;84.60;;;39.50;;
84616;SDS011;74846;51.126;16.944;2024-03-02T03:19:57;81.00;;;38.90;;
84616;SDS011;74846;51.126;16.944;2024-03-02T03:22:24;92.70;;;41.50;;
84616;SDS011;74846;51.126;16.944;2024-03-02T03:24:50;71.60;;;33.30;;
84616;SDS011;74846;51.126;16.944;2024-03-02T03:27:17;79.90;;;38.80;;
84616;SDS011;74846;51.126;16.944;2024-03-02T03:29:45;87.50;;;38.40;;
84616;SDS011;74846;51.126;16.944;2024-03-02T03:32:12;86.90;;;37.50;;
84616;SDS011;74846;51.126;16.944;2024-03-02T03:34:39;92.30;;;41.50;;
84616;SDS011;74846;51.126;16.944;2024-03-02T03:37:06;79.00;;;39.90;;
84616;SDS011;74846;51.126;16.944;2024-03-02T03:39:34;79.60;;;35.90;;
84616;SDS011;74846;51.126;16.944;2024-03-02T03:42:02;82.50;;;40.00;;
84616;SDS011;74846;51.126;16.944;2024-03-02T03:44:29;80.00;;;38.20;;
84616;SDS011;74846;51.126;16.944;2024-03-02T03:46:56;89.80;;;41.10;;
84616;SDS011;74846;51.126;16.944;2024-03-02T03:49:23;88.80;;;40.90;;
84616;SDS011;74846;51.126;16.944;2024-03-02T03:51:49;89.70;;;38.80;;
84616;SDS011;74846;51.126;16.944;2024-03-02T03:54:16;82.20;;;37.90;;
84616;SDS011;74846;51.126;16.944;2024-03-02T03:56:43;75.00;;;36.40;;
84616;SDS011;74846;51.126;16.944;2024-03-02T03:59:09;89.80;;;41.00;;
84616;SDS011;74846;51.126;16.944;2024-03-02T04:01:37;83.40;;;38.70;;
84616;SDS011;74846;51.126;16.944;2024-03-02T04:04:03;75.90;;;34.30;;
84616;SDS011;74846;51.126;16.944;2024-03-02T04:06:30;83.10;;;37.20;;
84616;SDS011;74846;51.126;16.944;2024-03-02T04:08:57;78.20;;;35.40;;
84616;SDS011;74846;51.126;16.944;2024-03-02T04:11:23;82.30;;;39.50;;
84616;SDS011;74846;51.126;16.944;2024-03-02T04:13:50;80.40;;;36.60;;
84616;SDS011;74846;51.126;16.944;2024-03-02T04:16:17;76.20;;;36.50;;
84616;SDS011;74846;51.126;16.944;2024-03-02T04:18:44;76.70;;;33.60;;
84616;SDS011;74846;51.126;16.944;2024-03-02T04:21:10;78.70;;;38.00;;
84616;SDS011;74846;51.126;16.944;2024-03-02T04:23:37;81.30;;;36.30;;
84616;SDS011;74846;51.126;16.944;2024-03-02T04:26:04;70.70;;;31.70;;
84616;SDS011;74846;51.126;16.944;2024-03-02T04:28:31;73.20;;;35.10;;
84616;SDS011;74846;51.126;16.944;2024-03-02T04:30:58;69.30;;;34.40;;
84616;SDS011;74846;51.126;16.944;2024-03-02T04:33:24;69.80;;;32.50;;
84616;SDS011;74846;51.126;16.944;2024-03-02T04:35:51;79.10;;;35.70;;
84616;SDS011;74846;51.126;16.944;2024-03-02T04:38:18;74.80;;;36.20;;
84616;SDS011;74846;51.126;16.944;2024-03-02T04:40:44;76.30;;;36.20;;
84616;SDS011;74846;51.126;16.944;2024-03-02T04:43:11;76.50;;;37.30;;
84616;SDS011;74846;51.126;16.944;2024-03-02T04:45:41;71.80;;;33.40;;
84616;SDS011;74846;51.126;16.944;2024-03-02T04:48:09;72.60;;;34.20;;
84616;SDS011;74846;51.126;16.944;2024-03-02T04:50:35;73.80;;;34.10;;
84616;SDS011;74846;51.126;16.944;2024-03-02T04:53:02;74.00;;;34.50;;
84616;SDS011;74846;51.126;16.944;2024-03-02T04:55:29;73.50;;;36.20;;
84616;SDS011;74846;51.126;16.944;2024-03-02T04:58:15;64.50;;;32.20;;
84616;SDS011;74846;51.126;16.944;2024-03-02T05:00:42;62.60;;;30.90;;
84616;SDS011;74846;51.126;16.944;2024-03-02T05:03:09;68.40;;;34.60;;
84616;SDS011;74846;51.126;16.944;2024-03-02T05:05:36;67.90;;;33.40;;
84616;SDS011;74846;51.126;16.944;2024-03-02T05:08:03;77.30;;;35.10;;
84616;SDS011;74846;51.126;16.944;2024-03-02T05:10:30;72.90;;;34.80;;
84616;SDS011;74846;51.126;16.944;2024-03-02T05:12:57;67.10;;;31.50;;
84616;SDS011;74846;51.126;16.944;2024-03-02T05:15:25;69.90;;;33.90;;
84616;SDS011;74846;51.126;16.944;2024-03-02T05:17:52;70.00;;;32.70;;
84616;SDS011;74846;51.126;16.944;2024-03-02T05:20:20;69.10;;;33.50;;
84616;SDS011;74846;51.126;16.944;2024-03-02T05:22:47;60.00;;;30.80;;
84616;SDS011;74846;51.126;16.944;2024-03-02T05:25:14;77.30;;;35.50;;
84616;SDS011;74846;51.126;16.944;2024-03-02T05:27:41;76.80;;;36.20;;
84616;SDS011;74846;51.126;16.944;2024-03-02T05:30:08;78.80;;;38.00;;
84616;SDS011;74846;51.126;16.944;2024-03-02T05:32:35;68.10;;;34.20;;
84616;SDS011;74846;51.126;16.944;2024-03-02T05:35:02;74.10;;;35.30;;
84616;SDS011;74846;51.126;16.944;2024-03-02T05:37:29;67.10;;;33.30;;
84616;SDS011;74846;51.126;16.944;2024-03-02T05:39:55;77.80;;;35.60;;
84616;SDS011;74846;51.126;16.944;2024-03-02T05:42:22;75.70;;;35.70;;
84616;SDS011;74846;51.126;16.944;2024-03-02T05:44:49;61.60;;;31.00;;
84616;SDS011;74846;51.126;16.944;2024-03-02T05:47:16;71.80;;;35.00;;
84616;SDS011;74846;51.126;16.944;2024-03-02T05:49:42;70.70;;;33.40;;
84616;SDS011;74846;51.126;16.944;2024-03-02T05:52:09;71.20;;;33.00;;
84616;SDS011;74846;51.126;16.944;2024-03-02T05:54:37;76.80;;;33.10;;
84616;SDS011;74846;51.126;16.944;2024-03-02T05:57:05;70.50;;;34.00;;
84616;SDS011;74846;51.126;16.944;2024-03-02T05:59:52;75.30;;;35.50;;
84616;SDS011;74846;51.126;16.944;2024-03-02T06:02:19;81.90;;;36.40;;
84616;SDS011;74846;51.126;16.944;2024-03-02T06:04:46;75.00;;;34.50;;
84616;SDS011;74846;51.126;16.944;2024-03-02T06:07:13;68.90;;;34.00;;
84616;SDS011;74846;51.126;16.944;2024-03-02T06:09:40;64.20;;;34.10;;
84616;SDS011;74846;51.126;16.944;2024-03-02T06:12:07;70.10;;;33.60;;
84616;SDS011;74846;51.126;16.944;2024-03-02T06:14:34;72.00;;;35.50;;
84616;SDS011;74846;51.126;16.944;2024-03-02T06:17:00;74.80;;;36.20;;
84616;SDS011;74846;51.126;16.944;2024-03-02T06:19:27;79.80;;;35.20;;
84616;SDS011;74846;51.126;16.944;2024-03-02T06:21:54;77.90;;;35.60;;
84616;SDS011;74846;51.126;16.944;2024-03-02T06:24:20;70.70;;;33.90;;
84616;SDS011;74846;51.126;16.944;2024-03-02T06:26:47;76.30;;;34.10;;
84616;SDS011;74846;51.126;16.944;2024-03-02T06:29:14;71.00;;;32.00;;
84616;SDS011;74846;51.126;16.944;2024-03-02T06:31:40;74.50;;;34.80;;
84616;SDS011;74846;51.126;16.944;2024-03-02T06:34:07;71.60;;;33.80;;
84616;SDS011;74846;51.126;16.944;2024-03-02T06:36:34;65.00;;;31.00;;
84616;SDS011;74846;51.126;16.944;2024-03-02T06:39:01;71.30;;;34.40;;
84616;SDS011;74846;51.126;16.944;2024-03-02T06:41:28;73.40;;;32.40;;
84616;SDS011;74846;51.126;16.944;2024-03-02T06:43:55;71.60;;;34.40;;
84616;SDS011;74846;51.126;16.944;2024-03-02T06:46:25;64.30;;;31.20;;
84616;SDS011;74846;51.126;16.944;2024-03-02T06:48:52;72.30;;;35.60;;
84616;SDS011;74846;51.126;16.944;2024-03-02T06:51:18;68.50;;;34.20;;
84616;SDS011;74846;51.126;16.944;2024-03-02T06:53:45;71.20;;;34.30;;
84616;SDS011;74846;51.126;16.944;2024-03-02T06:56:13;70.20;;;33.60;;
84616;SDS011;74846;51.126;16.944;2024-03-02T06:58:39;82.00;;;36.00;;
84616;SDS011;74846;51.126;16.944;2024-03-02T07:01:06;63.70;;;30.30;;
84616;SDS011;74846;51.126;16.944;2024-03-02T07:03:32;71.40;;;33.30;;
84616;SDS011;74846;51.126;16.944;2024-03-02T07:05:59;62.30;;;28.90;;
84616;SDS011;74846;51.126;16.944;2024-03-02T07:08:26;67.30;;;31.00;;
84616;SDS011;74846;51.126;16.944;2024-03-02T07:10:53;69.00;;;32.80;;
84616;SDS011;74846;51.126;16.944;2024-03-02T07:13:20;65.80;;;31.30;;
84616;SDS011;74846;51.126;16.944;2024-03-02T07:15:46;71.80;;;35.20;;
84616;SDS011;74846;51.126;16.944;2024-03-02T07:18:42;65.00;;;30.10;;
84616;SDS011;74846;51.126;16.944;2024-03-02T07:21:11;70.40;;;33.30;;
84616;SDS011;74846;51.126;16.944;2024-03-02T07:23:38;66.70;;;31.80;;
84616;SDS011;74846;51.126;16.944;2024-03-02T07:26:04;75.10;;;35.00;;
84616;SDS011;74846;51.126;16.944;2024-03-02T07:28:35;71.10;;;34.20;;
84616;SDS011;74846;51.126;16.944;2024-03-02T07:31:02;58.60;;;27.40;;
84616;SDS011;74846;51.126;16.944;2024-03-02T07:33:30;65.40;;;31.60;;
84616;SDS011;74846;51.126;16.944;2024-03-02T07:36:00;75.00;;;37.40;;
84616;SDS011;74846;51.126;16.944;2024-03-02T07:38:31;74.00;;;36.10;;
84616;SDS011;74846;51.126;16.944;2024-03-02T07:41:00;71.20;;;35.00;;
84616;SDS011;74846;51.126;16.944;2024-03-02T07:43:26;63.10;;;30.70;;
84616;SDS011;74846;51.126;16.944;2024-03-02T07:45:53;70.90;;;34.20;;
84616;SDS011;74846;51.126;16.944;2024-03-02T07:48:20;67.20;;;33.30;;
84616;SDS011;74846;51.126;16.944;2024-03-02T07:50:47;64.80;;;33.00;;
84616;SDS011;74846;51.126;16.944;2024-03-02T07:53:13;69.60;;;34.90;;
84616;SDS011;74846;51.126;16.944;2024-03-02T07:55:41;67.50;;;32.60;;
84616;SDS011;74846;51.126;16.944;2024-03-02T07:58:07;73.50;;;36.10;;
84616;SDS011;74846;51.126;16.944;2024-03-02T08:00:34;70.60;;;35.50;;
84616;SDS011;74846;51.126;16.944;2024-03-02T08:03:01;64.70;;;34.70;;
84616;SDS011;74846;51.126;16.944;2024-03-02T08:05:28;64.20;;;33.40;;
84616;SDS011;74846;51.126;16.944;2024-03-02T08:07:55;70.00;;;35.50;;
84616;SDS011;74846;51.126;16.944;2024-03-02T08:10:21;66.50;;;34.30;;
84616;SDS011;74846;51.126;16.944;2024-03-02T08:12:48;59.20;;;28.40;;
84616;SDS011;74846;51.126;16.944;2024-03-02T08:15:15;56.30;;;30.30;;
84616;SDS011;74846;51.126;16.944;2024-03-02T08:17:41;53.40;;;27.50;;
84616;SDS011;74846;51.126;16.944;2024-03-02T08:20:14;56.90;;;30.60;;
84616;SDS011;74846;51.126;16.944;2024-03-02T08:22:41;70.50;;;34.40;;
84616;SDS011;74846;51.126;16.944;2024-03-02T08:25:08;67.00;;;34.90;;
84616;SDS011;74846;51.126;16.944;2024-03-02T08:27:35;56.80;;;30.60;;
84616;SDS011;74846;51.126;16.944;2024-03-02T08:30:03;63.30;;;34.10;;
84616;SDS011;74846;51.126;16.944;2024-03-02T08:32:32;59.30;;;30.20;;
84616;SDS011;74846;51.126;16.944;2024-03-02T08:34:59;61.00;;;29.90;;
84616;SDS011;74846;51.126;16.944;2024-03-02T08:37:26;57.40;;;31.20;;
84616;SDS011;74846;51.126;16.944;2024-03-02T08:39:53;61.80;;;30.10;;
84616;SDS011;74846;51.126;16.944;2024-03-02T08:42:20;59.20;;;29.20;;
84616;SDS011;74846;51.126;16.944;2024-03-02T08:44:47;55.30;;;29.20;;
84616;SDS011;74846;51.126;16.944;2024-03-02T08:47:14;55.50;;;29.40;;
84616;SDS011;74846;51.126;16.944;2024-03-02T08:49:41;59.20;;;30.40;;
84616;SDS011;74846;51.126;16.944;2024-03-02T08:52:09;59.70;;;30.60;;
84616;SDS011;74846;51.126;16.944;2024-03-02T08:54:36;63.80;;;30.20;;
84616;SDS011;74846;51.126;16.944;2024-03-02T08:57:02;61.00;;;30.50;;
84616;SDS011;74846;51.126;16.944;2024-03-02T08:59:29;64.90;;;30.80;;
84616;SDS011;74846;51.126;16.944;2024-03-02T09:01:56;61.80;;;30.20;;
84616;SDS011;74846;51.126;16.944;2024-03-02T09:04:23;60.00;;;30.60;;
84616;SDS011;74846;51.126;16.944;2024-03-02T09:06:53;46.50;;;24.30;;
84616;SDS011;74846;51.126;16.944;2024-03-02T09:09:20;54.60;;;30.00;;
84616;SDS011;74846;51.126;16.944;2024-03-02T09:11:47;53.50;;;29.00;;
84616;SDS011;74846;51.126;16.944;2024-03-02T09:14:14;53.60;;;28.40;;
84616;SDS011;74846;51.126;16.944;2024-03-02T09:16:44;58.50;;;30.30;;
84616;SDS011;74846;51.126;16.944;2024-03-02T09:19:11;45.20;;;24.00;;
84616;SDS011;74846;51.126;16.944;2024-03-02T09:21:37;51.30;;;26.10;;
84616;SDS011;74846;51.126;16.944;2024-03-02T09:24:04;56.20;;;28.90;;
84616;SDS011;74846;51.126;16.944;2024-03-02T09:26:33;45.90;;;26.00;;
84616;SDS011;74846;51.126;16.944;2024-03-02T09:28:59;55.50;;;27.90;;
84616;SDS011;74846;51.126;16.944;2024-03-02T09:31:26;54.90;;;27.70;;
84616;SDS011;74846;51.126;16.944;2024-03-02T09:33:53;50.50;;;26.20;;
84616;SDS011;74846;51.126;16.944;2024-03-02T09:36:20;44.20;;;23.40;;
84616;SDS011;74846;51.126;16.944;2024-03-02T09:38:48;61.30;;;27.90;;
84616;SDS011;74846;51.126;16.944;2024-03-02T09:41:15;57.80;;;29.20;;
84616;SDS011;74846;51.126;16.944;2024-03-02T09:43:42;47.90;;;26.10;;
84616;SDS011;74846;51.126;16.944;2024-03-02T09:46:09;56.00;;;29.90;;
84616;SDS011;74846;51.126;16.944;2024-03-02T09:48:37;43.50;;;22.30;;
84616;SDS011;74846;51.126;16.944;2024-03-02T09:51:04;54.80;;;28.80;;
84616;SDS011;74846;51.126;16.944;2024-03-02T09:53:32;50.90;;;27.50;;
84616;SDS011;74846;51.126;16.944;2024-03-02T09:56:00;53.20;;;26.70;;
84616;SDS011;74846;51.126;16.944;2024-03-02T09:58:27;54.20;;;27.90;;
84616;SDS011;74846;51.126;16.944;2024-03-02T10:00:54;42.50;;;22.50;;
84616;SDS011;74846;51.126;16.944;2024-03-02T10:03:21;41.00;;;23.50;;
84616;SDS011;74846;51.126;16.944;2024-03-02T10:05:50;49.40;;;25.90;;
84616;SDS011;74846;51.126;16.944;2024-03-02T10:08:16;51.80;;;28.70;;
84616;SDS011;74846;51.126;16.944;2024-03-02T10:10:43;42.40;;;22.00;;
84616;SDS011;74846;51.126;16.944;2024-03-02T10:13:10;42.70;;;22.20;;
84616;SDS011;74846;51.126;16.944;2024-03-02T10:15:39;47.80;;;24.50;;
84616;SDS011;74846;51.126;16.944;2024-03-02T10:18:09;50.30;;;25.80;;
84616;SDS011;74846;51.126;16.944;2024-03-02T10:20:38;42.60;;;23.00;;
84616;SDS011;74846;51.126;16.944;2024-03-02T10:23:12;43.60;;;23.10;;
84616;SDS011;74846;51.126;16.944;2024-03-02T10:25:40;41.90;;;24.30;;
84616;SDS011;74846;51.126;16.944;2024-03-02T10:28:20;40.40;;;22.40;;
84616;SDS011;74846;51.126;16.944;2024-03-02T10:30:47;45.30;;;23.80;;
84616;SDS011;74846;51.126;16.944;2024-03-02T10:33:17;46.60;;;24.90;;
84616;SDS011;74846;51.126;16.944;2024-03-02T10:35:43;45.60;;;24.20;;
84616;SDS011;74846;51.126;16.944;2024-03-02T10:38:10;52.00;;;27.70;;
84616;SDS011;74846;51.126;16.944;2024-03-02T10:40:37;42.90;;;23.30;;
84616;SDS011;74846;51.126;16.944;2024-03-02T10:43:04;40.50;;;21.30;;
84616;SDS011;74846;51.126;16.944;2024-03-02T10:45:32;40.60;;;20.10;;
84616;SDS011;74846;51.126;16.944;2024-03-02T10:47:59;43.30;;;23.60;;
84616;SDS011;74846;51.126;16.944;2024-03-02T10:50:28;44.80;;;23.50;;
84616;SDS011;74846;51.126;16.944;2024-03-02T10:52:55;35.40;;;21.20;;
84616;SDS011;74846;51.126;16.944;2024-03-02T10:55:21;41.60;;;22.90;;
84616;SDS011;74846;51.126;16.944;2024-03-02T10:57:52;43.90;;;21.90;;
84616;SDS011;74846;51.126;16.944;2024-03-02T11:00:20;39.40;;;21.10;;
84616;SDS011;74846;51.126;16.944;2024-03-02T11:02:56;42.20;;;23.40;;
84616;SDS011;74846;51.126;16.944;2024-03-02T11:05:29;37.50;;;20.10;;
84616;SDS011;74846;51.126;16.944;2024-03-02T11:08:00;38.40;;;19.90;;
84616;SDS011;74846;51.126;16.944;2024-03-02T11:10:48;40.20;;;21.60;;
84616;SDS011;74846;51.126;16.944;2024-03-02T11:13:32;36.80;;;20.60;;
84616;SDS011;74846;51.126;16.944;2024-03-02T11:16:05;40.60;;;19.20;;
84616;SDS011;74846;51.126;16.944;2024-03-02T11:18:39;34.30;;;20.00;;
84616;SDS011;74846;51.126;16.944;2024-03-02T11:21:06;28.30;;;16.60;;
84616;SDS011;74846;51.126;16.944;2024-03-02T11:23:34;37.80;;;19.00;;
84616;SDS011;74846;51.126;16.944;2024-03-02T11:26:17;36.00;;;21.00;;
84616;SDS011;74846;51.126;16.944;2024-03-02T11:31:12;34.80;;;18.10;;
84616;SDS011;74846;51.126;16.944;2024-03-02T11:33:38;38.80;;;19.80;;
84616;SDS011;74846;51.126;16.944;2024-03-02T11:36:08;35.10;;;19.40;;
84616;SDS011;74846;51.126;16.944;2024-03-02T11:38:38;33.80;;;18.50;;
84616;SDS011;74846;51.126;16.944;2024-03-02T11:41:08;35.00;;;18.40;;
84616;SDS011;74846;51.126;16.944;2024-03-02T11:43:38;29.60;;;17.60;;
84616;SDS011;74846;51.126;16.944;2024-03-02T11:46:05;31.70;;;17.40;;
84616;SDS011;74846;51.126;16.944;2024-03-02T11:48:36;37.40;;;19.50;;
84616;SDS011;74846;51.126;16.944;2024-03-02T11:51:05;37.50;;;20.70;;
84616;SDS011;74846;51.126;16.944;2024-03-02T11:53:32;35.20;;;20.30;;
84616;SDS011;74846;51.126;16.944;2024-03-02T11:56:02;43.00;;;21.40;;
84616;SDS011;74846;51.126;16.944;2024-03-02T11:58:29;31.40;;;16.80;;
84616;SDS011;74846;51.126;16.944;2024-03-02T12:00:56;32.30;;;19.40;;
84616;SDS011;74846;51.126;16.944;2024-03-02T12:03:24;30.50;;;17.40;;
84616;SDS011;74846;51.126;16.944;2024-03-02T12:05:52;32.50;;;18.00;;
84616;SDS011;74846;51.126;16.944;2024-03-02T12:08:20;37.00;;;18.70;;
84616;SDS011;74846;51.126;16.944;2024-03-02T12:11:00;36.30;;;18.70;;
84616;SDS011;74846;51.126;16.944;2024-03-02T12:13:30;31.10;;;16.10;;
84616;SDS011;74846;51.126;16.944;2024-03-02T12:15:57;31.00;;;17.40;;
84616;SDS011;74846;51.126;16.944;2024-03-02T12:18:24;28.30;;;15.70;;
84616;SDS011;74846;51.126;16.944;2024-03-02T12:20:51;30.70;;;16.90;;
84616;SDS011;74846;51.126;16.944;2024-03-02T12:23:18;29.60;;;16.70;;
84616;SDS011;74846;51.126;16.944;2024-03-02T12:25:46;28.60;;;16.80;;
84616;SDS011;74846;51.126;16.944;2024-03-02T12:28:13;27.20;;;16.00;;
84616;SDS011;74846;51.126;16.944;2024-03-02T12:30:39;25.00;;;13.50;;
84616;SDS011;74846;51.126;16.944;2024-03-02T12:33:06;29.80;;;14.70;;
84616;SDS011;74846;51.126;16.944;2024-03-02T12:35:33;23.00;;;14.00;;
84616;SDS011;74846;51.126;16.944;2024-03-02T12:37:59;26.90;;;13.90;;
84616;SDS011;74846;51.126;16.944;2024-03-02T12:40:26;27.50;;;15.40;;
84616;SDS011;74846;51.126;16.944;2024-03-02T12:42:53;26.70;;;14.00;;
84616;SDS011;74846;51.126;16.944;2024-03-02T12:45:20;24.60;;;13.00;;
84616;SDS011;74846;51.126;16.944;2024-03-02T12:47:50;26.70;;;14.90;;
84616;SDS011;74846;51.126;16.944;2024-03-02T12:50:20;28.30;;;14.70;;
84616;SDS011;74846;51.126;16.944;2024-03-02T12:52:54;26.50;;;14.70;;
84616;SDS011;74846;51.126;16.944;2024-03-02T12:55:22;28.30;;;14.70;;
84616;SDS011;74846;51.126;16.944;2024-03-02T12:57:52;28.80;;;16.20;;
84616;SDS011;74846;51.126;16.944;2024-03-02T13:00:21;31.80;;;16.10;;
84616;SDS011;74846;51.126;16.944;2024-03-02T13:02:49;28.70;;;14.70;;
84616;SDS011;74846;51.126;16.944;2024-03-02T13:05:16;29.80;;;14.90;;
84616;SDS011;74846;51.126;16.944;2024-03-02T13:07:43;28.30;;;14.80;;
84616;SDS011;74846;51.126;16.944;2024-03-02T13:10:12;31.20;;;15.10;;
84616;SDS011;74846;51.126;16.944;2024-03-02T13:12:39;34.60;;;18.40;;
84616;SDS011;74846;51.126;16.944;2024-03-02T13:15:05;28.60;;;17.00;;
84616;SDS011;74846;51.126;16.944;2024-03-02T13:17:35;31.40;;;17.40;;
84616;SDS011;74846;51.126;16.944;2024-03-02T13:20:04;30.80;;;17.50;;
84616;SDS011;74846;51.126;16.944;2024-03-02T13:22:36;27.50;;;15.20;;
84616;SDS011;74846;51.126;16.944;2024-03-02T13:25:03;28.80;;;16.70;;
84616;SDS011;74846;51.126;16.944;2024-03-02T13:27:31;27.90;;;15.90;;
84616;SDS011;74846;51.126;16.944;2024-03-02T13:29:58;33.30;;;18.20;;
84616;SDS011;74846;51.126;16.944;2024-03-02T13:32:25;31.10;;;16.80;;
84616;SDS011;74846;51.126;16.944;2024-03-02T13:34:52;28.20;;;15.70;;
84616;SDS011;74846;51.126;16.944;2024-03-02T13:37:19;28.80;;;17.00;;
84616;SDS011;74846;51.126;16.944;2024-03-02T13:39:46;30.10;;;17.30;;
84616;SDS011;74846;51.126;16.944;2024-03-02T13:42:13;27.50;;;14.80;;
84616;SDS011;74846;51.126;16.944;2024-03-02T13:44:44;27.10;;;15.20;;
84616;SDS011;74846;51.126;16.944;2024-03-02T13:47:15;25.80;;;14.80;;
84616;SDS011;74846;51.126;16.944;2024-03-02T13:49:42;27.60;;;14.90;;
84616;SDS011;74846;51.126;16.944;2024-03-02T13:52:13;30.40;;;16.20;;
84616;SDS011;74846;51.126;16.944;2024-03-02T13:54:40;28.30;;;16.40;;
84616;SDS011;74846;51.126;16.944;2024-03-02T13:57:08;28.30;;;15.70;;
84616;SDS011;74846;51.126;16.944;2024-03-02T13:59:35;27.00;;;14.60;;
84616;SDS011;74846;51.126;16.944;2024-03-02T14:02:03;27.30;;;15.50;;
84616;SDS011;74846;51.126;16.944;2024-03-02T14:04:31;27.40;;;14.50;;
84616;SDS011;74846;51.126;16.944;2024-03-02T14:06:59;23.70;;;13.00;;
84616;SDS011;74846;51.126;16.944;2024-03-02T14:09:26;28.20;;;15.70;;
84616;SDS011;74846;51.126;16.944;2024-03-02T14:11:54;25.10;;;14.80;;
84616;SDS011;74846;51.126;16.944;2024-03-02T14:14:21;29.70;;;15.80;;
84616;SDS011;74846;51.126;16.944;2024-03-02T14:16:48;25.20;;;14.90;;
84616;SDS011;74846;51.126;16.944;2024-03-02T14:19:14;26.30;;;15.40;;
84616;SDS011;74846;51.126;16.944;2024-03-02T14:21:41;25.70;;;13.70;;
84616;SDS011;74846;51.126;16.944;2024-03-02T14:24:08;25.50;;;13.90;;